Atlantic City International Airport


Codes: KACY/ACY
Name: Atlantic City International Airport
City: Atlantic City
Country: United States
Elevation: 75 ft.
Wikipedia:

Photos at Atlantic City International Airport


   Photos courtesy of SpottingLog. You can add your own sightings and photos by signing up for a free trial today.



No photos found.

Weather at Atlantic City International Airport


Time (UTC)DescriptionTempratureWindCloud coverageVisibilityPressureHumidity
19-Apr-2024 06:00Overcast Clouds7°C7 mph, NE98%10000m1021hPa85%
19-Apr-2024 09:00Broken Clouds7°C7 mph, NE64%10000m1021hPa88%
19-Apr-2024 12:00Scattered Clouds9°C9 mph, E48%10000m1021hPa75%
19-Apr-2024 15:00Broken Clouds12°C9 mph, E79%10000m1020hPa66%
19-Apr-2024 18:00Overcast Clouds12°C9 mph, SE89%10000m1019hPa73%
19-Apr-2024 21:00Overcast Clouds11°C9 mph, SE100%10000m1018hPa79%
20-Apr-2024 00:00Overcast Clouds10°C4 mph, SE100%10000m1018hPa90%
20-Apr-2024 03:00Overcast Clouds10°C4 mph, SE93%10000m1016hPa93%
20-Apr-2024 06:00Overcast Clouds11°C2 mph, S96%10000m1015hPa94%
20-Apr-2024 09:00Light Rain11°C4 mph, W100%10000m1015hPa96%
20-Apr-2024 12:00Overcast Clouds11°C4 mph, W100%10000m1015hPa93%
20-Apr-2024 15:00Overcast Clouds14°C7 mph, NW95%10000m1016hPa51%
20-Apr-2024 18:00Broken Clouds19°C13 mph, W53%10000m1014hPa32%
20-Apr-2024 21:00Overcast Clouds16°C11 mph, NW88%10000m1014hPa41%
21-Apr-2024 00:00Broken Clouds12°C9 mph, NW65%10000m1016hPa46%
21-Apr-2024 03:00Clear Sky8°C4 mph, NW4%10000m1017hPa55%
21-Apr-2024 06:00Scattered Clouds6°C2 mph, NW47%10000m1018hPa60%
21-Apr-2024 09:00Overcast Clouds5°C2 mph, NW99%10000m1018hPa66%
21-Apr-2024 12:00Broken Clouds8°C4 mph, W70%10000m1020hPa54%
21-Apr-2024 15:00Scattered Clouds12°C9 mph, W40%10000m1020hPa38%
21-Apr-2024 18:00Broken Clouds14°C9 mph, W70%10000m1017hPa36%
21-Apr-2024 21:00Overcast Clouds14°C9 mph, W100%10000m1016hPa41%
22-Apr-2024 00:00Overcast Clouds10°C7 mph, SW100%10000m1016hPa63%
22-Apr-2024 03:00Overcast Clouds8°C4 mph, SW100%10000m1017hPa69%
22-Apr-2024 06:00Overcast Clouds8°C7 mph, W100%10000m1015hPa64%
22-Apr-2024 09:00Overcast Clouds7°C4 mph, NW100%10000m1015hPa72%
22-Apr-2024 12:00Overcast Clouds9°C7 mph, N89%10000m1017hPa57%
22-Apr-2024 15:00Clear Sky15°C4 mph, N5%10000m1017hPa37%
22-Apr-2024 18:00Clear Sky17°C2 mph, NE3%10000m1016hPa31%
22-Apr-2024 21:00Clear Sky14°C9 mph, SE5%10000m1016hPa40%
23-Apr-2024 00:00Clear Sky9°C4 mph, SE3%10000m1018hPa62%
23-Apr-2024 03:00Clear Sky8°C4 mph, SW6%10000m1019hPa65%
23-Apr-2024 06:00Clear Sky7°C4 mph, SW3%10000m1019hPa77%
23-Apr-2024 09:00Clear Sky6°C2 mph, SW0%10000m1020hPa85%
23-Apr-2024 12:00Clear Sky11°C4 mph, S0%10000m1021hPa68%
23-Apr-2024 15:00Scattered Clouds16°C9 mph, S31%10000m1021hPa41%
23-Apr-2024 18:00Scattered Clouds16°C13 mph, S46%10000m1020hPa37%
23-Apr-2024 21:00Few Clouds15°C11 mph, S12%10000m1019hPa46%
24-Apr-2024 00:00Scattered Clouds10°C7 mph, S39%10000m1019hPa77%
24-Apr-2024 03:00Overcast Clouds11°C11 mph, S100%10000m1018hPa71%